Time;durP1;ratioP1;P1;durP2;ratioP2;P2;SDS_P1;SDS_P2;PMS_P1;PMS_P2;Temp;Humidity;BMP_temperature;BMP_pressure;BME280_temperature;BME280_humidity;BME280_pressure;Samples;Min_cycle;Max_cycle;Signal;HPM_P1;HPM_P2
2022/05/19 00:02:19;;;;;;;68.78;33.80;;;;;;;19.25;100.00;101402.09;5068244;28;20095;-79
2022/05/19 00:04:45;;;;;;;63.00;33.88;;;;;;;19.26;100.00;101397.41;5042088;28;20064;-79
2022/05/19 00:07:11;;;;;;;64.30;34.30;;;;;;;19.38;100.00;101389.63;5074741;28;20481;-78
2022/05/19 00:09:37;;;;;;;58.33;35.15;;;;;;;19.19;100.00;101386.09;5076594;28;20036;-79
2022/05/19 00:12:17;;;;;;;61.28;33.25;;;;;;;19.27;100.00;101393.59;5072960;28;20032;-78
2022/05/19 00:14:42;;;;;;;67.45;34.35;;;;;;;19.33;100.00;101394.81;5069586;28;20047;-78
2022/05/19 00:17:08;;;;;;;59.85;33.75;;;;;;;19.40;100.00;101390.38;5073548;28;20037;-79
2022/05/19 00:19:34;;;;;;;61.75;34.17;;;;;;;19.27;100.00;101388.91;5051732;28;20043;-79
2022/05/19 00:22:00;;;;;;;62.28;34.50;;;;;;;19.31;100.00;101391.34;5074413;28;20326;-79
2022/05/19 00:24:26;;;;;;;61.20;35.95;;;;;;;19.21;100.00;101389.56;5073699;28;20047;-79
2022/05/19 00:26:51;;;;;;;55.38;34.50;;;;;;;19.26;100.00;101375.19;5050688;28;20032;-79
2022/05/19 00:29:17;;;;;;;67.45;35.50;;;;;;;19.27;100.00;101377.81;5071649;28;20032;-79
2022/05/19 00:31:42;;;;;;;65.20;34.72;;;;;;;19.22;100.00;101376.56;5040144;28;20036;-78
2022/05/19 00:34:08;;;;;;;69.75;34.65;;;;;;;19.18;100.00;101380.69;5056709;28;20060;-79
2022/05/19 00:36:34;;;;;;;67.63;34.33;;;;;;;19.20;100.00;101373.97;5057542;28;20094;-80
2022/05/19 00:38:59;;;;;;;66.00;34.75;;;;;;;19.25;100.00;101381.75;5053482;28;20166;-79
2022/05/19 00:41:25;;;;;;;65.40;36.22;;;;;;;19.20;100.00;101382.28;5074898;28;20387;-78
2022/05/19 00:44:03;;;;;;;62.47;35.03;;;;;;;19.15;100.00;101376.38;5058730;28;20041;-78
2022/05/19 00:46:42;;;;;;;60.35;34.00;;;;;;;19.21;100.00;101367.34;5076575;28;20040;-80
2022/05/19 00:49:16;;;;;;;60.22;34.30;;;;;;;19.09;100.00;101365.91;5076650;28;20059;-78
2022/05/19 00:51:54;;;;;;;57.95;32.97;;;;;;;19.06;100.00;101363.47;5058967;28;20039;-79
2022/05/19 00:54:37;;;;;;;65.55;35.92;;;;;;;19.11;100.00;101361.06;5072700;28;20064;-79
2022/05/19 00:57:08;;;;;;;63.53;33.47;;;;;;;18.99;100.00;101359.59;5057905;28;20082;-78
2022/05/19 00:59:45;;;;;;;68.75;36.13;;;;;;;18.90;100.00;101361.44;5056913;28;20058;-79
2022/05/19 01:02:14;;;;;;;67.00;37.00;;;;;;;18.76;100.00;101349.03;5055939;28;20490;-80
2022/05/19 01:04:55;;;;;;;61.35;35.35;;;;;;;18.73;100.00;101349.34;5076074;28;21410;-79
2022/05/19 01:07:27;;;;;;;66.25;36.88;;;;;;;18.74;100.00;101342.75;5077731;28;20031;-78
2022/05/19 01:09:57;;;;;;;64.50;36.15;;;;;;;18.78;100.00;101346.94;5072604;28;20047;-80
2022/05/19 01:12:25;;;;;;;69.15;39.47;;;;;;;18.61;100.00;101347.88;5076274;28;20051;-78
2022/05/19 01:14:54;;;;;;;65.88;36.33;;;;;;;18.68;100.00;101346.19;5068230;28;20028;-78
2022/05/19 01:17:20;;;;;;;63.05;37.10;;;;;;;18.62;100.00;101344.94;5059998;28;20042;-80
2022/05/19 01:19:52;;;;;;;61.53;35.65;;;;;;;18.60;100.00;101335.91;5043484;28;20467;-81
2022/05/19 01:22:26;;;;;;;67.78;36.67;;;;;;;18.59;100.00;101336.06;5076509;28;20074;-79
2022/05/19 01:25:10;;;;;;;66.25;35.13;;;;;;;18.62;100.00;101341.28;5076456;28;20033;-80
2022/05/19 01:27:36;;;;;;;55.70;33.40;;;;;;;18.63;100.00;101337.50;5058903;28;20056;-78
2022/05/19 01:30:04;;;;;;;61.13;33.50;;;;;;;18.62;100.00;101341.28;5074914;28;20126;-78
2022/05/19 01:32:31;;;;;;;58.88;35.35;;;;;;;18.58;100.00;101340.75;5053721;28;20488;-78
2022/05/19 01:34:59;;;;;;;58.08;34.15;;;;;;;18.64;100.00;101325.34;5055521;28;20072;-79
2022/05/19 01:37:25;;;;;;;56.72;32.97;;;;;;;18.67;100.00;101322.25;5060060;28;20037;-78
2022/05/19 01:39:54;;;;;;;56.13;34.45;;;;;;;18.51;100.00;101315.56;5075536;28;20044;-78
2022/05/19 01:42:41;;;;;;;53.95;32.95;;;;;;;18.51;100.00;101311.91;5065705;28;20403;-78
2022/05/19 01:45:41;;;;;;;51.22;29.73;;;;;;;18.59;100.00;101305.56;5078309;28;20036;-78
2022/05/19 01:48:14;;;;;;;55.25;30.13;;;;;;;18.57;100.00;101313.19;5072825;28;20040;-79
2022/05/19 01:50:47;;;;;;;52.00;30.40;;;;;;;18.45;100.00;101310.66;5059394;28;20032;-77
2022/05/19 01:53:25;;;;;;;52.08;29.73;;;;;;;18.49;100.00;101316.75;5075442;28;20040;-78
2022/05/19 01:56:14;;;;;;;52.78;26.67;;;;;;;18.63;100.00;101316.16;5071166;28;20050;-79
2022/05/19 01:58:48;;;;;;;41.00;25.55;;;;;;;18.68;100.00;101315.69;5074711;28;20049;-79
2022/05/19 02:01:17;;;;;;;46.55;23.95;;;;;;;18.76;100.00;101320.38;5072059;28;20029;-79
2022/05/19 02:03:55;;;;;;;47.20;23.63;;;;;;;18.71;100.00;101316.22;5070751;28;20048;-77
2022/05/19 02:06:37;;;;;;;30.10;19.50;;;;;;;18.79;100.00;101320.97;5065224;28;20530;-78
2022/05/19 02:09:13;;;;;;;30.83;20.40;;;;;;;18.84;100.00;101315.81;5076398;28;20059;-78
2022/05/19 02:11:43;;;;;;;30.92;19.52;;;;;;;18.92;100.00;101314.97;5068109;28;20155;-78
2022/05/19 02:14:14;;;;;;;29.58;17.70;;;;;;;18.89;100.00;101313.41;5068866;28;20024;-78
2022/05/19 02:16:42;;;;;;;34.13;17.08;;;;;;;18.92;100.00;101313.09;5075326;28;20032;-79
2022/05/19 02:19:10;;;;;;;31.02;15.70;;;;;;;18.90;100.00;101315.13;5071829;28;20029;-78
2022/05/19 02:21:36;;;;;;;27.58;15.93;;;;;;;18.91;100.00;101316.88;5069108;28;20029;-78
2022/05/19 02:24:03;;;;;;;32.50;15.05;;;;;;;18.92;100.00;101313.09;5073709;28;20080;-79
2022/05/19 02:26:38;;;;;;;29.15;16.00;;;;;;;19.00;100.00;101320.56;5054642;28;20040;-78
2022/05/19 02:29:09;;;;;;;25.25;15.90;;;;;;;18.96;100.00;101318.31;5056903;28;20029;-78
2022/05/19 02:31:35;;;;;;;25.23;15.18;;;;;;;18.98;100.00;101316.22;5062992;28;20048;-78
2022/05/19 02:34:03;;;;;;;30.52;15.88;;;;;;;18.99;100.00;101307.75;5071520;28;20054;-78
2022/05/19 02:36:29;;;;;;;22.75;15.00;;;;;;;18.95;100.00;101303.53;5075895;28;20048;-79
2022/05/19 02:38:55;;;;;;;30.83;15.23;;;;;;;18.98;100.00;101307.91;5066539;28;20085;-80
2022/05/19 02:41:20;;;;;;;19.52;14.38;;;;;;;19.00;100.00;101305.81;5073892;28;20503;-80
2022/05/19 02:43:48;;;;;;;22.83;13.38;;;;;;;19.01;100.00;101294.56;5055669;28;20033;-79
2022/05/19 02:46:14;;;;;;;26.10;13.88;;;;;;;19.01;100.00;101296.47;5054700;28;20032;-79
2022/05/19 02:48:39;;;;;;;27.70;13.68;;;;;;;19.05;100.00;101295.09;5053362;28;20063;-79
2022/05/19 02:51:05;;;;;;;20.42;13.43;;;;;;;18.97;100.00;101297.84;5062758;28;20041;-79
2022/05/19 02:53:31;;;;;;;24.27;12.30;;;;;;;19.01;100.00;101300.13;5065794;28;20020;-79
2022/05/19 02:55:57;;;;;;;18.30;11.90;;;;;;;18.99;100.00;101302.19;5072155;28;20104;-79
2022/05/19 02:58:22;;;;;;;16.17;12.52;;;;;;;19.01;100.00;101302.03;5040865;28;20936;-79
2022/05/19 03:00:49;;;;;;;22.88;12.25;;;;;;;18.97;100.00;101308.94;5038873;28;20128;-78
2022/05/19 03:03:15;;;;;;;18.55;10.63;;;;;;;19.03;100.00;101311.06;5086669;28;20047;-78
2022/05/19 03:05:41;;;;;;;20.75;10.70;;;;;;;19.03;100.00;101313.81;5077901;28;20036;-79
2022/05/19 03:08:09;;;;;;;17.67;10.93;;;;;;;19.00;100.00;101305.81;5069959;28;20033;-79
2022/05/19 03:10:37;;;;;;;23.23;10.32;;;;;;;19.03;100.00;101316.59;5075594;28;20726;-79
2022/05/19 03:13:03;;;;;;;23.67;10.70;;;;;;;18.99;100.00;101313.28;5057066;28;20037;-78
2022/05/19 03:15:29;;;;;;;25.73;10.38;;;;;;;19.03;100.00;101319.38;5066690;28;20072;-79
2022/05/19 03:17:55;;;;;;;20.20;9.82;;;;;;;18.92;100.00;101318.63;5028739;28;20063;-78
2022/05/19 03:20:21;;;;;;;18.15;10.38;;;;;;;18.89;100.00;101324.50;5066288;28;20100;-79
2022/05/19 03:22:47;;;;;;;17.80;9.63;;;;;;;18.87;100.00;101326.59;5074299;28;20492;-79
2022/05/19 03:25:13;;;;;;;18.23;8.85;;;;;;;18.84;100.00;101329.69;5073480;28;20055;-80
2022/05/19 03:27:39;;;;;;;18.83;9.35;;;;;;;18.78;100.00;101332.22;5071303;28;20704;-79
2022/05/19 03:30:08;;;;;;;25.02;9.50;;;;;;;18.79;100.00;101340.38;5071441;28;20050;-81
2022/05/19 03:32:34;;;;;;;20.98;9.35;;;;;;;18.73;100.00;101328.03;5073581;28;20043;-79
2022/05/19 03:34:59;;;;;;;21.67;8.57;;;;;;;18.67;100.00;101325.88;5073872;28;20135;-79
2022/05/19 03:37:26;;;;;;;21.95;8.85;;;;;;;18.76;100.00;101332.38;5074094;28;20044;-80
2022/05/19 03:39:51;;;;;;;18.45;8.98;;;;;;;18.73;100.00;101341.03;5072422;28;20037;-79
2022/05/19 03:42:17;;;;;;;14.00;7.95;;;;;;;18.72;100.00;101361.47;5032397;28;20037;-79
2022/05/19 03:44:42;;;;;;;18.55;8.43;;;;;;;18.70;100.00;101469.81;5069449;28;20041;-79
2022/05/19 03:47:08;;;;;;;24.33;12.65;;;;;;;18.76;100.00;101498.84;5050223;28;20032;-79
2022/05/19 03:49:34;;;;;;;28.02;16.25;;;;;;;18.89;100.00;101485.47;5075682;28;20372;-80
2022/05/19 03:52:00;;;;;;;27.45;15.40;;;;;;;19.05;100.00;101423.66;5056612;28;20028;-79
2022/05/19 03:54:26;;;;;;;26.95;15.90;;;;;;;19.00;100.00;101477.91;5079669;28;20058;-80
2022/05/19 03:56:54;;;;;;;24.83;15.75;;;;;;;19.13;100.00;101480.25;5078084;28;20060;-80
2022/05/19 03:59:20;;;;;;;29.75;15.63;;;;;;;19.19;100.00;101462.97;5058151;28;20100;-80
2022/05/19 04:01:46;;;;;;;20.05;13.23;;;;;;;19.27;100.00;101461.09;5073948;28;20834;-80
2022/05/19 04:04:12;;;;;;;25.15;14.52;;;;;;;19.29;100.00;101469.25;5056961;28;20103;-79
2022/05/19 04:06:37;;;;;;;22.20;13.30;;;;;;;19.26;100.00;101473.22;5072325;28;20032;-79
2022/05/19 04:09:05;;;;;;;23.38;14.00;;;;;;;19.23;100.00;101454.16;5051924;28;20119;-79
2022/05/19 04:11:32;;;;;;;25.58;13.90;;;;;;;19.30;100.00;101465.47;5039897;28;20040;-81
2022/05/19 04:13:58;;;;;;;33.38;13.65;;;;;;;19.27;100.00;101472.22;5072417;28;20035;-79
2022/05/19 04:16:24;;;;;;;21.15;13.05;;;;;;;19.27;100.00;101466.66;5072909;28;20434;-80
2022/05/19 04:18:50;;;;;;;25.95;13.63;;;;;;;19.38;100.00;101454.41;5059055;28;20040;-80
2022/05/19 04:21:16;;;;;;;27.35;13.27;;;;;;;19.39;100.00;101461.69;5077846;28;20073;-80
2022/05/19 04:23:42;;;;;;;23.15;13.25;;;;;;;19.39;100.00;101469.16;5061799;28;20032;-78
2022/05/19 04:26:08;;;;;;;24.65;14.32;;;;;;;19.33;100.00;101455.91;5084697;28;20478;-79
2022/05/19 04:28:34;;;;;;;25.58;14.25;;;;;;;19.35;100.00;101449.19;5055392;28;20509;-80
2022/05/19 04:31:00;;;;;;;30.40;15.23;;;;;;;19.16;100.00;101439.16;5040038;28;20048;-78
2022/05/19 04:33:26;;;;;;;26.70;16.02;;;;;;;19.15;100.00;101451.31;5045315;28;20028;-79
2022/05/19 04:35:52;;;;;;;28.15;15.45;;;;;;;19.20;100.00;101465.56;5095554;28;20024;-80
2022/05/19 04:38:18;;;;;;;27.13;16.98;;;;;;;19.24;100.00;101455.88;5077504;28;20381;-78
2022/05/19 04:40:49;;;;;;;30.70;16.58;;;;;;;19.32;100.00;101452.28;5056763;28;20371;-81
2022/05/19 04:43:21;;;;;;;28.38;17.05;;;;;;;19.39;100.00;101458.03;5074199;28;20476;-80
2022/05/19 04:45:51;;;;;;;30.10;16.52;;;;;;;19.39;100.00;101460.81;5076424;28;20064;-80
2022/05/19 04:48:20;;;;;;;27.58;17.40;;;;;;;19.34;100.00;101466.00;5075285;28;20082;-79
2022/05/19 04:50:49;;;;;;;32.22;18.92;;;;;;;19.37;100.00;101465.69;5068026;28;20382;-79
2022/05/19 04:53:15;;;;;;;30.70;17.65;;;;;;;19.40;100.00;101465.34;5072066;28;20028;-79
2022/05/19 04:55:41;;;;;;;33.35;19.17;;;;;;;19.40;100.00;101460.66;5064994;28;20032;-78
2022/05/19 04:58:06;;;;;;;26.35;16.90;;;;;;;19.52;100.00;101461.25;5091226;28;20107;-79
2022/05/19 05:00:33;;;;;;;32.67;17.70;;;;;;;19.61;100.00;101464.91;5054529;28;20121;-79
2022/05/19 05:02:59;;;;;;;29.38;17.98;;;;;;;19.77;100.00;101458.59;5061033;28;20085;-80
2022/05/19 05:05:25;;;;;;;30.92;18.80;;;;;;;19.74;100.00;101448.69;5089481;28;20437;-80
2022/05/19 05:07:51;;;;;;;31.85;20.25;;;;;;;19.79;100.00;101449.09;5075992;28;20030;-80
2022/05/19 05:10:16;;;;;;;32.45;18.58;;;;;;;19.88;100.00;101458.31;5042831;28;20475;-81
2022/05/19 05:12:42;;;;;;;34.20;18.13;;;;;;;19.92;100.00;101458.84;5060545;28;20035;-78
2022/05/19 05:15:09;;;;;;;28.83;18.77;;;;;;;20.00;100.00;101462.53;5043009;28;20123;-79
2022/05/19 05:17:35;;;;;;;26.15;17.25;;;;;;;20.19;100.00;101460.50;5043334;28;20032;-79
2022/05/19 05:20:03;;;;;;;29.50;19.60;;;;;;;20.41;100.00;101463.66;5094622;28;20099;-80
2022/05/19 05:22:30;;;;;;;32.58;18.98;;;;;;;20.36;100.00;101458.59;5077548;28;20024;-79
2022/05/19 05:24:57;;;;;;;37.60;21.15;;;;;;;20.33;100.00;101461.72;5078268;28;20515;-80
2022/05/19 05:27:23;;;;;;;29.35;20.52;;;;;;;20.28;100.00;101462.25;5080246;28;20024;-81
2022/05/19 05:29:48;;;;;;;30.38;20.70;;;;;;;20.39;100.00;101456.34;5080131;28;20391;-80
2022/05/19 05:32:14;;;;;;;32.40;20.85;;;;;;;20.51;100.00;101456.03;5048942;28;20058;-79
2022/05/19 05:34:40;;;;;;;33.92;22.00;;;;;;;20.68;100.00;101460.59;5045885;28;20028;-81
2022/05/19 05:37:06;;;;;;;42.35;22.10;;;;;;;20.61;100.00;101453.97;5063621;28;20024;-80
2022/05/19 05:39:32;;;;;;;43.28;23.15;;;;;;;20.71;100.00;101438.00;5066445;28;20107;-82
2022/05/19 05:41:57;;;;;;;37.83;21.83;;;;;;;20.87;100.00;101427.88;5087146;28;20058;-81
2022/05/19 05:44:23;;;;;;;34.30;21.00;;;;;;;20.85;100.00;101432.75;5101798;28;20035;-81
2022/05/19 05:46:48;;;;;;;34.83;21.88;;;;;;;21.03;100.00;101430.66;5064273;28;20036;-81
2022/05/19 05:49:14;;;;;;;29.98;20.33;;;;;;;21.06;100.00;101435.00;5061175;28;20032;-79
2022/05/19 05:51:41;;;;;;;36.45;21.33;;;;;;;20.93;100.00;101441.09;5046843;28;20538;-80
2022/05/19 05:54:06;;;;;;;37.55;21.35;;;;;;;20.92;100.00;101454.16;5081501;28;20097;-79
2022/05/19 05:56:32;;;;;;;37.42;21.33;;;;;;;21.02;100.00;101451.22;5076791;28;20036;-81
2022/05/19 05:58:57;;;;;;;28.48;19.75;;;;;;;21.03;100.00;101452.94;5082858;28;20028;-80
2022/05/19 06:01:23;;;;;;;33.38;19.40;;;;;;;21.22;100.00;101445.25;5081758;28;20046;-80
2022/05/19 06:03:49;;;;;;;32.40;19.23;;;;;;;21.21;100.00;101424.88;5064159;28;20024;-80
2022/05/19 06:06:15;;;;;;;31.20;17.13;;;;;;;21.13;100.00;101424.03;5082663;28;20055;-81
2022/05/19 06:08:41;;;;;;;35.53;21.20;;;;;;;21.01;100.00;101421.59;5071445;28;20025;-80
2022/05/19 06:11:07;;;;;;;36.30;21.27;;;;;;;21.09;100.00;101409.59;5078882;28;20091;-80
2022/05/19 06:13:36;;;;;;;33.67;21.15;;;;;;;20.99;100.00;101403.31;5083987;28;20036;-79
2022/05/19 06:16:02;;;;;;;32.95;19.70;;;;;;;21.09;100.00;101409.59;5082000;28;20139;-77
2022/05/19 06:18:29;;;;;;;30.63;21.00;;;;;;;21.07;100.00;101407.00;5091611;28;20044;-83
2022/05/19 06:20:55;;;;;;;38.00;23.90;;;;;;;20.98;100.00;101402.47;5103118;28;20068;-82
2022/05/19 06:23:21;;;;;;;42.40;23.33;;;;;;;21.04;100.00;101410.13;5085595;28;20047;-82
2022/05/19 06:25:46;;;;;;;33.45;23.38;;;;;;;21.16;100.00;101399.47;5081577;28;20024;-80
2022/05/19 06:28:12;;;;;;;33.22;21.55;;;;;;;21.22;100.00;101400.69;5081947;28;20346;-81
2022/05/19 06:30:38;;;;;;;33.30;23.42;;;;;;;21.46;100.00;101397.81;5073936;28;20708;-80
2022/05/19 06:33:08;;;;;;;34.28;23.15;;;;;;;21.36;100.00;101391.56;5098999;28;20465;-81
2022/05/19 06:35:37;;;;;;;42.92;23.80;;;;;;;21.28;100.00;101384.13;5083449;28;20040;-80
2022/05/19 06:38:02;;;;;;;51.63;25.38;;;;;;;21.24;100.00;101379.09;5045917;28;20052;-81
2022/05/19 06:40:31;;;;;;;39.05;23.58;;;;;;;21.24;100.00;101367.94;5050124;28;20089;-81
2022/05/19 06:42:57;;;;;;;32.88;22.17;;;;;;;21.15;100.00;101371.81;5078770;28;20036;-82
2022/05/19 06:45:26;;;;;;;40.60;22.58;;;;;;;21.13;100.00;101363.63;5055853;28;20063;-78
2022/05/19 06:47:52;;;;;;;36.13;20.42;;;;;;;21.06;100.00;101355.13;5058939;28;20031;-78
2022/05/19 06:50:20;;;;;;;29.27;20.23;;;;;;;21.01;100.00;101337.22;5068698;28;20028;-78
2022/05/19 06:53:01;;;;;;;31.55;20.17;;;;;;;21.09;100.00;101337.19;5077983;28;20028;-78
2022/05/19 06:55:28;;;;;;;42.75;21.85;;;;;;;21.21;100.00;101352.44;5093497;28;20058;-78
2022/05/19 06:57:58;;;;;;;33.63;21.25;;;;;;;21.17;100.00;101356.66;5080056;28;20024;-79
2022/05/19 07:00:26;;;;;;;30.65;18.13;;;;;;;21.10;100.00;101363.97;5077835;28;20051;-79
2022/05/19 07:02:55;;;;;;;42.65;16.73;;;;;;;21.17;100.00;101378.94;5062380;28;20040;-80
2022/05/19 07:05:23;;;;;;;32.30;16.50;;;;;;;21.10;100.00;101372.31;5064178;28;20024;-80
2022/05/19 07:07:49;;;;;;;21.98;15.13;;;;;;;21.05;100.00;101383.13;5080330;28;20515;-79
2022/05/19 07:10:17;;;;;;;35.17;16.83;;;;;;;21.13;100.00;101385.91;5097302;28;20056;-80
2022/05/19 07:12:44;;;;;;;29.45;15.90;;;;;;;21.14;100.00;101384.00;5062449;28;20031;-80
2022/05/19 07:15:11;;;;;;;26.55;15.32;;;;;;;21.10;100.00;101378.78;5063061;28;20438;-80
2022/05/19 07:17:37;;;;;;;34.25;16.67;;;;;;;21.04;100.00;101379.50;5097911;28;20387;-79
2022/05/19 07:22:47;;;;;;;28.55;16.10;;;;;;;21.01;100.00;101337.22;5079953;28;20499;-78
2022/05/19 07:25:13;;;;;;;28.98;15.48;;;;;;;20.91;100.00;101299.31;5078574;28;20134;-79
2022/05/19 07:27:39;;;;;;;29.67;15.93;;;;;;;20.84;100.00;101294.63;5059130;28;20059;-79
2022/05/19 07:30:06;;;;;;;27.63;16.55;;;;;;;20.87;100.00;101266.44;5047101;28;20032;-79
2022/05/19 07:32:31;;;;;;;26.48;15.18;;;;;;;20.89;100.00;101283.81;5078588;28;20048;-79
2022/05/19 07:34:59;;;;;;;28.95;14.15;;;;;;;20.92;100.00;101309.41;5064056;28;20061;-78
2022/05/19 07:37:25;;;;;;;25.63;13.32;;;;;;;20.98;100.00;101312.50;5061412;28;20039;-80
2022/05/19 07:39:52;;;;;;;25.13;13.48;;;;;;;21.08;100.00;101336.31;5045976;28;20127;-80
2022/05/19 07:42:18;;;;;;;26.27;13.15;;;;;;;21.10;100.00;101328.66;5092681;28;20548;-78
2022/05/19 07:44:44;;;;;;;23.40;12.30;;;;;;;21.13;100.00;101351.63;5084040;28;20036;-78
2022/05/19 07:47:10;;;;;;;22.70;12.45;;;;;;;21.22;100.00;101351.41;5048787;28;20053;-79
2022/05/19 07:49:36;;;;;;;26.83;12.05;;;;;;;21.24;100.00;101343.75;5064281;28;20029;-79
2022/05/19 07:52:02;;;;;;;18.05;10.05;;;;;;;21.37;100.00;101337.59;5046803;28;20063;-80
2022/05/19 07:54:28;;;;;;;22.52;11.02;;;;;;;21.51;100.00;101344.34;5096051;28;20028;-79
2022/05/19 07:56:54;;;;;;;25.08;10.55;;;;;;;21.56;100.00;101352.16;5061250;28;20732;-78
2022/05/19 07:59:21;;;;;;;19.35;9.40;;;;;;;21.58;100.00;101344.50;5046000;28;20124;-80
2022/05/19 08:01:47;;;;;;;18.92;9.80;;;;;;;21.74;100.00;101327.69;5078297;28;20035;-80
2022/05/19 08:04:15;;;;;;;21.17;9.30;;;;;;;22.05;100.00;101337.94;5080808;28;20032;-79
2022/05/19 08:06:41;;;;;;;20.45;9.80;;;;;;;22.22;100.00;101330.31;5080319;28;20032;-79
2022/05/19 08:11:53;;;;;;;18.58;9.77;;;;;;;22.47;100.00;101302.25;5079767;28;20028;-80
2022/05/19 08:17:08;;;;;;;17.48;8.50;;;;;;;23.20;100.00;101317.34;5098474;28;20057;-78
2022/05/19 08:19:34;;;;;;;14.55;8.48;;;;;;;23.93;97.80;101313.75;5062586;28;20097;-79
2022/05/19 08:22:00;;;;;;;17.08;8.30;;;;;;;24.72;92.21;101321.16;5061942;28;20032;-80
2022/05/19 08:24:26;;;;;;;18.25;7.97;;;;;;;25.06;90.70;101342.75;5062076;28;20055;-80
2022/05/19 08:26:52;;;;;;;15.52;8.02;;;;;;;25.56;86.25;101322.13;5075518;28;20067;-78
2022/05/19 08:29:19;;;;;;;19.30;8.05;;;;;;;25.91;83.38;101324.81;5058473;28;20029;-79
2022/05/19 08:31:45;;;;;;;14.48;6.90;;;;;;;26.12;81.60;101316.28;5044891;28;20399;-78
2022/05/19 08:34:11;;;;;;;13.02;6.05;;;;;;;26.66;78.08;101325.63;5061191;28;20485;-80
2022/05/19 08:36:37;;;;;;;14.75;6.93;;;;;;;26.60;78.28;101321.69;5046901;28;20039;-80
2022/05/19 08:39:02;;;;;;;12.10;5.45;;;;;;;27.27;75.69;101324.44;5063171;28;20032;-82
2022/05/19 08:41:35;;;;;;;14.35;6.30;;;;;;;27.29;72.29;101332.66;5061978;28;20028;-79
2022/05/19 08:44:03;;;;;;;;;;;;;;;27.14;73.06;101324.47;5078717;28;20127;-79
2022/05/19 08:46:57;;;;;;;15.82;5.97;;;;;;;26.63;73.61;101323.22;5096320;28;19911;-80
2022/05/19 08:49:41;;;;;;;11.18;6.07;;;;;;;27.53;73.52;101327.38;5094211;28;20039;-82
2022/05/19 08:52:18;;;;;;;21.48;6.28;;;;;;;27.26;71.94;101327.47;5079285;28;20032;-78
2022/05/19 08:54:46;;;;;;;13.13;5.43;;;;;;;27.94;73.48;101321.38;5060235;28;20040;-79
2022/05/19 08:57:22;;;;;;;13.98;6.45;;;;;;;27.85;70.18;101319.88;5059959;28;20560;-80
2022/05/19 08:59:58;;;;;;;10.32;6.10;;;;;;;27.72;71.02;101311.50;5063657;28;20081;-79
2022/05/19 09:02:59;;;;;;;17.98;5.60;;;;;;;27.53;70.04;101314.19;5096418;28;20062;-79
2022/05/19 09:05:52;;;;;;;21.33;6.57;;;;;;;27.83;70.84;101302.34;5012563;28;20204;-79
2022/05/19 09:08:24;;;;;;;14.02;5.28;;;;;;;28.42;69.34;101294.59;5080884;28;20490;-79
2022/05/19 09:11:12;;;;;;;16.42;6.22;;;;;;;28.48;66.27;101304.06;5063428;28;20036;-80
2022/05/19 09:13:55;;;;;;;15.13;6.38;;;;;;;28.33;66.18;101296.81;5055440;28;20035;-78
2022/05/19 09:16:27;;;;;;;8.68;6.25;;;;;;;28.32;66.68;101302.69;5080309;28;20071;-79
2022/05/19 09:19:02;;;;;;;17.55;5.90;;;;;;;28.58;67.22;101288.41;5069486;28;20605;-78
2022/05/19 09:21:28;;;;;;;17.90;6.85;;;;;;;28.65;65.85;101284.69;5090409;28;20038;-80
2022/05/19 09:23:53;;;;;;;21.52;7.25;;;;;;;29.02;64.63;101285.56;5099359;28;20039;-78
2022/05/19 09:26:51;;;;;;;18.13;6.82;;;;;;;29.18;64.33;101277.63;5062937;28;20090;-77
2022/05/19 09:29:27;;;;;;;16.90;6.93;;;;;;;28.86;62.78;101277.72;5074103;28;20047;-80
2022/05/19 09:32:02;;;;;;;20.25;8.70;;;;;;;28.88;63.90;101278.38;5077211;28;20028;-79
2022/05/19 09:34:29;;;;;;;21.45;8.63;;;;;;;28.48;66.50;101273.94;5064449;28;20056;-79
2022/05/19 09:37:14;;;;;;;29.63;8.05;;;;;;;28.44;65.84;101272.69;5082086;28;20059;-79
2022/05/19 09:39:45;;;;;;;19.35;7.65;;;;;;;28.08;65.51;101281.88;5073687;28;20043;-79
2022/05/19 09:42:18;;;;;;;17.70;7.45;;;;;;;27.75;64.92;101280.09;5046063;28;20025;-79
2022/05/19 09:44:50;;;;;;;16.25;7.28;;;;;;;28.28;64.09;101291.00;5079872;28;20483;-79
2022/05/19 09:47:26;;;;;;;28.48;8.57;;;;;;;28.44;63.60;101269.03;5076543;28;20035;-80
2022/05/19 09:49:57;;;;;;;26.38;7.97;;;;;;;28.91;61.14;101275.94;5061841;28;20582;-79
2022/05/19 09:52:26;;;;;;;31.35;7.95;;;;;;;28.78;61.92;101273.28;5076135;28;20043;-77
2022/05/19 09:55:01;;;;;;;15.68;7.35;;;;;;;28.50;61.03;101276.53;5080480;28;20583;-78
2022/05/19 09:57:34;;;;;;;17.58;7.70;;;;;;;28.52;61.92;101265.91;5092347;28;20055;-79
2022/05/19 10:00:01;;;;;;;;;;;;;;;28.84;60.95;101266.69;5080776;28;20024;-78
2022/05/19 10:02:39;;;;;;;25.08;8.50;;;;;;;28.55;61.83;101269.13;5096333;28;19912;-77
2022/05/19 10:05:32;;;;;;;14.50;7.05;;;;;;;29.35;60.28;101267.41;5093362;28;20073;-79
2022/05/19 10:08:05;;;;;;;31.67;7.55;;;;;;;29.01;59.62;101266.06;5071113;28;20043;-78
2022/05/19 10:10:35;;;;;;;20.15;7.30;;;;;;;29.13;59.72;101255.75;5071743;28;20599;-80
2022/05/19 10:13:08;;;;;;;20.48;7.85;;;;;;;29.17;59.41;101256.97;5096008;28;20024;-77
2022/05/19 10:15:40;;;;;;;20.67;7.45;;;;;;;29.35;57.98;101252.47;5063750;28;20123;-79
2022/05/19 10:18:32;;;;;;;17.42;7.85;;;;;;;28.78;59.90;101245.09;5075008;28;20536;-80
2022/05/19 10:21:39;;;;;;;16.90;7.70;;;;;;;29.28;57.20;101232.81;5077102;28;20079;-79
2022/05/19 10:24:34;;;;;;;14.52;7.35;;;;;;;29.40;57.94;101225.28;4983117;28;20145;-79
2022/05/19 10:33:24;;;;;;;18.88;7.65;;;;;;;29.33;58.29;101197.16;5072647;28;20048;-79
2022/05/19 10:36:02;;;;;;;16.40;7.80;;;;;;;28.90;60.35;101191.59;5066779;28;20081;-77
2022/05/19 10:38:44;;;;;;;29.70;6.97;;;;;;;29.22;58.17;101188.59;5071200;28;20111;-78
2022/05/19 10:41:42;;;;;;;13.57;6.45;;;;;;;29.69;56.81;101192.47;5077713;28;20032;-78
2022/05/19 10:44:38;;;;;;;25.80;7.47;;;;;;;29.69;55.82;101186.81;5073071;28;20044;-77
2022/05/19 10:47:28;;;;;;;16.92;7.38;;;;;;;29.13;56.74;101194.53;5075333;28;20074;-78
2022/05/19 10:50:25;;;;;;;23.50;7.07;;;;;;;29.24;57.41;101190.09;5092957;28;20028;-78
2022/05/19 10:53:07;;;;;;;17.52;6.63;;;;;;;29.11;59.45;101187.44;5075937;28;20464;-78
2022/05/19 10:55:45;;;;;;;18.88;6.28;;;;;;;29.40;57.85;101201.81;5076211;28;20526;-78
2022/05/19 10:58:32;;;;;;;24.17;7.18;;;;;;;29.24;58.28;101195.75;5078341;28;20499;-79
2022/05/19 11:01:04;;;;;;;14.93;7.03;;;;;;;28.99;58.21;101203.41;5075364;28;20502;-79
2022/05/19 11:03:48;;;;;;;15.27;6.45;;;;;;;29.05;58.81;101205.28;5060176;28;20029;-77
2022/05/19 11:06:19;;;;;;;19.67;7.55;;;;;;;29.15;58.35;101183.91;5069042;28;20389;-78
2022/05/19 11:09:00;;;;;;;23.60;7.70;;;;;;;29.48;56.00;101181.72;5045428;28;20035;-79
2022/05/19 11:12:03;;;;;;;15.30;6.63;;;;;;;29.87;55.31;101170.94;5073405;28;20041;-78
2022/05/19 11:14:47;;;;;;;25.33;7.13;;;;;;;29.64;55.32;101177.38;5061637;28;20088;-79
2022/05/19 11:17:30;;;;;;;18.42;6.63;;;;;;;29.94;53.74;101177.38;5062197;28;20036;-78
2022/05/19 11:20:12;;;;;;;22.30;7.55;;;;;;;29.50;53.61;101173.91;5070052;28;20060;-78
2022/05/19 11:22:40;;;;;;;18.85;7.43;;;;;;;29.27;53.68;101166.19;5075789;28;20181;-79
2022/05/19 11:28:31;;;;;;;22.58;7.25;;;;;;;29.00;55.54;101168.50;5079339;28;20043;-79
2022/05/19 11:31:02;;;;;;;14.13;7.45;;;;;;;28.94;56.22;101167.47;5074214;28;20036;-77
2022/05/19 11:33:36;;;;;;;24.90;7.50;;;;;;;28.86;55.65;101162.16;5068412;28;20032;-77
2022/05/19 11:36:15;;;;;;;20.20;7.32;;;;;;;28.67;57.13;101181.88;5076519;28;20502;-77
2022/05/19 11:38:50;;;;;;;26.10;8.00;;;;;;;28.58;57.51;101189.78;5079512;28;20028;-79
2022/05/19 11:41:23;;;;;;;30.55;7.25;;;;;;;28.48;58.54;101180.97;5079969;28;20043;-79